MSR735 LTFM-HECA
Flight info
| Callsign | MSR735 |
|---|---|
| Flight time | N/A |
| Altitude | 35000 |
| Route | RATVU UT35 AYT UM855 TOMBI M855 RASDA A16 CVO |
| Aircraft | A21N/M-L/N |
Departure
| Time | 2026-02-18 11:35 |
|---|---|
| Airport | İstanbul Airport (LTFM) |
Arrival
| Time | N/A |
|---|---|
| Airport | Cairo International Airport (HECA) |
| Time | Latitude | Longitude | Altitude | Speed | Heading |
|---|---|---|---|---|---|
| 2026-02-18 11:14 | 41.26168 | 28.73627 | 334 ft | 0 kts | 107° |
| 2026-02-18 11:23 | 41.26170 | 28.73618 | 334 ft | 2 kts | 107° |
| 2026-02-18 11:23 | 41.26174 | 28.73598 | 334 ft | 2 kts | 107° |
| 2026-02-18 11:23 | 41.26179 | 28.73580 | 334 ft | 2 kts | 107° |
| 2026-02-18 11:24 | 41.26182 | 28.73566 | 334 ft | 0 kts | 107° |
| 2026-02-18 11:24 | 41.26184 | 28.73548 | 334 ft | 2 kts | 74° |
| 2026-02-18 11:24 | 41.26176 | 28.73530 | 334 ft | 2 kts | 41° |
| 2026-02-18 11:24 | 41.26166 | 28.73522 | 334 ft | 0 kts | 14° |
| 2026-02-18 11:25 | 41.26159 | 28.73521 | 334 ft | 1 kts | 11° |
| 2026-02-18 11:25 | 41.26158 | 28.73521 | 334 ft | 0 kts | 11° |
| 2026-02-18 11:27 | 41.26160 | 28.73521 | 334 ft | 1 kts | 7° |
| 2026-02-18 11:27 | 41.26178 | 28.73518 | 334 ft | 3 kts | 343° |
| 2026-02-18 11:28 | 41.26205 | 28.73486 | 334 ft | 6 kts | 297° |
| 2026-02-18 11:28 | 41.26212 | 28.73411 | 334 ft | 9 kts | 271° |
| 2026-02-18 11:28 | 41.26212 | 28.73394 | 334 ft | 0 kts | 270° |
| 2026-02-18 11:30 | 41.26212 | 28.73387 | 334 ft | 1 kts | 270° |
| 2026-02-18 11:30 | 41.26212 | 28.73363 | 334 ft | 3 kts | 270° |
| 2026-02-18 11:30 | 41.26212 | 28.73323 | 334 ft | 5 kts | 269° |
| 2026-02-18 11:31 | 41.26211 | 28.73262 | 334 ft | 8 kts | 269° |
| 2026-02-18 11:31 | 41.26210 | 28.73172 | 334 ft | 11 kts | 269° |
| 2026-02-18 11:31 | 41.26209 | 28.73058 | 334 ft | 13 kts | 269° |
| 2026-02-18 11:31 | 41.26208 | 28.72922 | 334 ft | 15 kts | 269° |
| 2026-02-18 11:32 | 41.26206 | 28.72767 | 334 ft | 17 kts | 269° |
| 2026-02-18 11:32 | 41.26205 | 28.72699 | 334 ft | 0 kts | 270° |
| 2026-02-18 11:33 | 41.26205 | 28.72695 | 334 ft | 1 kts | 270° |
| 2026-02-18 11:33 | 41.26205 | 28.72617 | 334 ft | 7 kts | 269° |
| 2026-02-18 11:33 | 41.26215 | 28.72544 | 334 ft | 9 kts | 318° |
| 2026-02-18 11:34 | 41.26281 | 28.72523 | 334 ft | 11 kts | 359° |
| 2026-02-18 11:34 | 41.26384 | 28.72520 | 334 ft | 30 kts | 359° |
| 2026-02-18 11:34 | 41.26856 | 28.72516 | 334 ft | 103 kts | 358° |
| 2026-02-18 11:34 | 41.27796 | 28.72483 | 340 ft | 161 kts | 353° |
| 2026-02-18 11:35 | 41.28923 | 28.72443 | 959 ft | 163 kts | 355° |
| 2026-02-18 11:35 | 41.30035 | 28.72426 | 1681 ft | 163 kts | 356° |
| 2026-02-18 11:35 | 41.31159 | 28.72442 | 2336 ft | 168 kts | 358° |
| 2026-02-18 11:35 | 41.32376 | 28.72498 | 2791 ft | 183 kts | 359° |
| 2026-02-18 11:36 | 41.33697 | 28.72549 | 3216 ft | 200 kts | 0° |
| 2026-02-18 11:36 | 41.35163 | 28.72591 | 3560 ft | 224 kts | 358° |
| 2026-02-18 11:36 | 41.36705 | 28.72039 | 4033 ft | 243 kts | 328° |
| 2026-02-18 11:36 | 41.37841 | 28.70358 | 4783 ft | 255 kts | 298° |
| 2026-02-18 11:37 | 41.38221 | 28.68038 | 5603 ft | 265 kts | 274° |
| 2026-02-18 11:37 | 41.38145 | 28.63037 | 7071 ft | 279 kts | 272° |
| 2026-02-18 11:37 | 41.38095 | 28.60405 | 7792 ft | 285 kts | 269° |
| 2026-02-18 11:38 | 41.37627 | 28.57846 | 8467 ft | 295 kts | 242° |
| 2026-02-18 11:38 | 41.36270 | 28.55821 | 9184 ft | 298 kts | 210° |
| 2026-02-18 11:38 | 41.34358 | 28.54933 | 9949 ft | 293 kts | 181° |
| 2026-02-18 11:38 | 41.32312 | 28.54953 | 10686 ft | 295 kts | 174° |
| 2026-02-18 11:39 | 41.30216 | 28.55108 | 11060 ft | 312 kts | 174° |
| 2026-02-18 11:39 | 41.27990 | 28.55240 | 11381 ft | 330 kts | 175° |
| 2026-02-18 11:39 | 41.25684 | 28.55658 | 11668 ft | 343 kts | 160° |
| 2026-02-18 11:39 | 41.23544 | 28.57077 | 11947 ft | 354 kts | 141° |
| 2026-02-18 11:40 | 41.21693 | 28.59292 | 12242 ft | 367 kts | 134° |
| 2026-02-18 11:40 | 41.19819 | 28.61760 | 12519 ft | 382 kts | 134° |
| 2026-02-18 11:40 | 41.17914 | 28.64260 | 13019 ft | 389 kts | 134° |
| 2026-02-18 11:40 | 41.15983 | 28.66760 | 13694 ft | 391 kts | 134° |
| 2026-02-18 11:41 | 41.14072 | 28.69324 | 14325 ft | 393 kts | 131° |